Time;durP1;ratioP1;P1;durP2;ratioP2;P2;SDS_P1;SDS_P2;PMS_P1;PMS_P2;Temp;Humidity;BMP_temperature;BMP_pressure;BME280_temperature;BME280_humidity;BME280_pressure;Samples;Min_cycle;Max_cycle;Signal;HPM_P1;HPM_P2
2022/02/02 00:02:31;;;;;;;5.28;2.22;;;7.20;99.90;;;;;;4988258;28;20065;-81
2022/02/02 00:05:24;;;;;;;5.82;1.60;;;7.10;99.90;;;;;;4995295;28;20057;-81
2022/02/02 00:08:00;;;;;;;12.82;2.20;;;6.70;99.90;;;;;;4980452;28;20398;-79
2022/02/02 00:13:42;;;;;;;5.43;1.95;;;6.70;99.90;;;;;;4990220;28;20047;-82
2022/02/02 00:16:13;;;;;;;9.02;2.03;;;6.90;99.90;;;;;;4979830;28;20116;-79
2022/02/02 00:21:45;;;;;;;8.55;2.55;;;6.80;99.90;;;;;;4942122;28;20121;-79
2022/02/02 00:26:55;;;;;;;7.50;1.90;;;6.60;99.90;;;;;;4990447;28;20311;-79
2022/02/02 00:29:25;;;;;;;5.05;2.50;;;6.80;99.90;;;;;;4970446;28;20538;-79
2022/02/02 00:32:00;;;;;;;8.75;2.58;;;6.60;99.90;;;;;;4971680;28;20468;-78
2022/02/02 00:34:28;;;;;;;7.50;3.00;;;7.00;99.90;;;;;;4985901;28;20059;-80
2022/02/02 00:36:58;;;;;;;8.82;1.90;;;6.70;99.90;;;;;;4989108;28;20050;-79
2022/02/02 00:39:25;;;;;;;4.22;2.78;;;6.80;99.90;;;;;;4972842;28;20057;-78
2022/02/02 00:41:56;;;;;;;5.63;2.40;;;6.60;99.90;;;;;;4975349;28;20443;-81
2022/02/02 00:44:23;;;;;;;6.03;2.80;;;6.90;99.90;;;;;;4990108;28;20486;-81
2022/02/02 00:46:49;;;;;;;11.38;3.00;;;6.90;99.90;;;;;;4974615;28;20039;-80
2022/02/02 00:49:14;;;;;;;9.38;2.00;;;7.10;99.90;;;;;;4989948;28;20030;-81
2022/02/02 00:51:49;;;;;;;7.85;2.67;;;7.00;99.90;;;;;;4974308;28;20113;-80
2022/02/02 00:54:21;;;;;;;8.60;2.42;;;6.80;99.90;;;;;;4989475;28;20046;-80
2022/02/02 00:56:48;;;;;;;5.03;1.67;;;7.20;99.90;;;;;;4982634;28;20074;-79
2022/02/02 00:59:14;;;;;;;10.85;2.40;;;7.10;99.90;;;;;;4988104;28;20045;-82
2022/02/02 01:01:40;;;;;;;;;;;6.80;99.90;;;;;;4986813;28;20095;-80
2022/02/02 01:04:06;;;;;;;7.93;2.45;;;6.70;99.90;;;;;;4990387;28;19921;-80
2022/02/02 01:06:36;;;;;;;8.73;2.72;;;7.00;99.90;;;;;;4991068;28;20439;-80
2022/02/02 01:09:18;;;;;;;7.15;2.42;;;7.20;99.90;;;;;;5002745;28;20093;-82
2022/02/02 01:22:17;;;;;;;11.80;2.95;;;7.00;99.90;;;;;;4992746;28;20058;-80
2022/02/02 01:29:48;;;;;;;2.63;1.17;;;6.60;99.90;;;;;;4990556;28;20046;-81
2022/02/02 01:32:13;;;;;;;4.40;1.60;;;6.10;99.90;;;;;;5001179;28;20038;-79
2022/02/02 01:34:39;;;;;;;9.23;1.95;;;5.90;99.90;;;;;;4969711;28;20520;-80
2022/02/02 01:37:06;;;;;;;1.08;1.02;;;5.90;99.90;;;;;;4991775;28;20085;-81
2022/02/02 01:39:33;;;;;;;7.28;1.92;;;5.90;99.90;;;;;;4960826;28;20042;-81
2022/02/02 01:42:01;;;;;;;7.78;1.77;;;5.90;99.90;;;;;;4989794;28;20080;-78
2022/02/02 01:44:39;;;;;;;5.85;2.15;;;6.00;99.90;;;;;;4991248;28;20112;-81
2022/02/02 01:47:07;;;;;;;6.82;2.35;;;6.00;99.90;;;;;;4998300;28;20500;-81
2022/02/02 01:59:48;;;;;;;6.72;2.40;;;6.20;99.90;;;;;;4984823;28;20058;-78
2022/02/02 02:02:14;;;;;;;5.05;2.35;;;6.40;99.90;;;;;;4978219;28;20384;-82
2022/02/02 02:04:39;;;;;;;10.13;1.63;;;6.40;99.90;;;;;;4975892;28;20050;-78
2022/02/02 02:07:06;;;;;;;7.32;2.28;;;6.80;99.90;;;;;;4992347;28;20052;-82
2022/02/02 02:09:32;;;;;;;2.92;1.73;;;6.50;99.90;;;;;;4993411;28;20034;-81
2022/02/02 02:11:58;;;;;;;5.50;2.35;;;6.40;99.90;;;;;;4994369;28;20053;-80
2022/02/02 02:16:52;;;;;;;5.60;1.58;;;6.50;99.90;;;;;;4978776;28;20484;-79
2022/02/02 02:19:21;;;;;;;7.50;2.05;;;6.30;99.90;;;;;;4971593;28;20085;-81
2022/02/02 02:21:49;;;;;;;5.22;2.13;;;6.20;99.90;;;;;;4977690;28;20570;-82
2022/02/02 02:24:15;;;;;;;9.15;1.92;;;6.10;99.90;;;;;;4980758;28;20066;-79
2022/02/02 02:26:42;;;;;;;7.45;2.30;;;6.00;99.90;;;;;;4991618;28;20105;-80
2022/02/02 02:29:28;;;;;;;2.80;1.35;;;6.20;99.90;;;;;;4997021;28;20631;-82
2022/02/02 02:32:15;;;;;;;3.53;1.45;;;6.00;99.90;;;;;;4979954;28;20049;-79
2022/02/02 02:35:09;;;;;;;15.18;2.60;;;6.10;99.90;;;;;;4992688;28;20042;-80
2022/02/02 02:56:07;;;;;;;8.82;1.77;;;6.20;99.90;;;;;;4986360;28;20085;-82
2022/02/02 03:01:20;;;;;;;1.85;0.98;;;5.70;99.90;;;;;;4988145;28;20081;-81
2022/02/02 04:01:24;;;;;;;5.40;1.90;;;6.40;99.90;;;;;;4990992;28;20049;-82
2022/02/02 04:05:47;;;;;;;9.70;3.05;;;6.80;99.90;;;;;;4989647;28;20372;-80
2022/02/02 04:08:24;;;;;;;12.30;3.53;;;6.10;99.90;;;;;;4985543;28;20042;-82
2022/02/02 04:10:50;;;;;;;10.73;2.88;;;6.20;99.90;;;;;;4970566;28;20050;-79
2022/02/02 04:56:57;;;;;;;9.98;2.65;;;6.00;99.90;;;;;;4979265;28;20550;-81
2022/02/02 05:53:22;;;;;;;5.57;1.85;;;5.60;99.90;;;;;;4992260;28;20501;-80
2022/02/02 05:55:50;;;;;;;4.63;2.70;;;5.60;99.90;;;;;;4991851;28;20070;-80
2022/02/02 05:58:24;;;;;;;3.00;2.38;;;6.40;99.90;;;;;;4966404;28;20046;-78
2022/02/02 06:00:52;;;;;;;5.20;2.40;;;5.90;99.90;;;;;;4991399;28;20050;-82
2022/02/02 06:03:19;;;;;;;9.15;2.78;;;6.00;99.90;;;;;;4990913;28;20038;-80
2022/02/02 06:05:44;;;;;;;3.33;1.63;;;5.80;99.90;;;;;;4974345;28;20140;-81
2022/02/02 06:08:12;;;;;;;4.00;2.97;;;5.90;99.90;;;;;;4984042;28;20078;-81
2022/02/02 06:10:40;;;;;;;7.55;2.17;;;6.30;99.90;;;;;;4998111;28;20053;-81
2022/02/02 06:13:05;;;;;;;8.20;3.25;;;5.90;99.90;;;;;;4967456;28;20038;-81
2022/02/02 06:15:32;;;;;;;9.77;2.35;;;6.00;99.90;;;;;;4977657;28;20395;-82
2022/02/02 06:18:01;;;;;;;8.38;2.15;;;6.10;99.90;;;;;;4991547;28;20153;-81
2022/02/02 06:20:28;;;;;;;10.27;2.38;;;6.00;99.90;;;;;;4989756;28;20050;-81
2022/02/02 06:23:13;;;;;;;13.35;2.55;;;6.00;99.90;;;;;;4974643;28;20057;-81
2022/02/02 06:25:45;;;;;;;12.23;3.25;;;6.00;99.90;;;;;;4990267;28;20104;-80
2022/02/02 06:28:17;;;;;;;4.70;2.70;;;6.20;99.90;;;;;;4993319;28;20507;-80
2022/02/02 06:30:59;;;;;;;8.30;1.90;;;6.10;99.90;;;;;;4997575;28;20054;-81
2022/02/02 06:33:35;;;;;;;6.30;2.10;;;6.00;99.90;;;;;;5003354;28;20395;-82
2022/02/02 06:36:11;;;;;;;20.50;2.72;;;6.00;99.90;;;;;;4973222;28;20043;-79
2022/02/02 06:38:38;;;;;;;12.48;3.50;;;6.00;99.90;;;;;;4991793;28;20089;-81
2022/02/02 06:41:05;;;;;;;5.30;2.25;;;6.10;99.90;;;;;;4982124;28;20042;-81
2022/02/02 06:43:31;;;;;;;10.40;2.95;;;6.50;99.90;;;;;;4989595;28;20057;-82
2022/02/02 06:45:59;;;;;;;12.40;4.28;;;6.00;99.90;;;;;;4990043;28;20042;-81
2022/02/02 06:48:27;;;;;;;3.60;1.95;;;6.10;99.90;;;;;;4977293;28;20047;-79
2022/02/02 06:51:10;;;;;;;14.05;2.85;;;6.00;99.90;;;;;;4987023;28;20133;-80
2022/02/02 06:53:47;;;;;;;14.20;2.67;;;5.90;99.90;;;;;;4985575;28;20090;-83
2022/02/02 06:59:50;;;;;;;5.63;1.45;;;5.90;99.90;;;;;;4994698;28;20097;-80
2022/02/02 07:12:56;;;;;;;9.13;2.22;;;5.90;99.90;;;;;;4998420;28;20074;-82
2022/02/02 07:18:08;;;;;;;6.20;2.20;;;5.90;99.90;;;;;;4984173;28;20567;-80
2022/02/02 07:26:08;;;;;;;4.85;2.60;;;5.80;99.90;;;;;;4990864;28;20062;-84
2022/02/02 07:28:57;;;;;;;9.80;1.67;;;5.80;99.90;;;;;;5001885;28;20499;-82
2022/02/02 07:31:48;;;;;;;11.57;1.70;;;4.70;99.90;;;;;;4977791;28;20042;-81
2022/02/02 07:34:50;;;;;;;6.05;2.05;;;5.80;99.90;;;;;;4989086;28;20109;-83
2022/02/02 07:37:30;;;;;;;4.72;2.17;;;6.40;99.90;;;;;;4980101;28;20058;-80
2022/02/02 07:39:58;;;;;;;16.15;2.30;;;5.90;99.90;;;;;;4992168;28;20049;-81
2022/02/02 07:42:26;;;;;;;11.23;2.13;;;6.10;99.90;;;;;;4984774;28;20042;-81
2022/02/02 07:44:59;;;;;;;3.92;2.17;;;6.50;99.90;;;;;;4977793;28;20065;-83
2022/02/02 07:48:15;;;;;;;;;;;;;;;;;;;;;
2022/02/02 07:50:43;;;;;;;7.43;1.70;;;5.70;99.90;;;;;;4972514;28;20480;-81
2022/02/02 07:55:38;;;;;;;12.95;2.53;;;5.60;99.90;;;;;;5081719;27;20167;-81
2022/02/02 07:58:06;;;;;;;9.98;2.15;;;5.80;99.90;;;;;;5070498;28;20136;-80
2022/02/02 08:01:26;;;;;;;5.72;1.75;;;5.70;99.90;;;;;;5105716;27;1977648;-80
2022/02/02 08:03:57;;;;;;;12.93;2.83;;;5.90;99.90;;;;;;5116014;27;20338;-79
2022/02/02 08:06:26;;;;;;;13.48;2.50;;;5.80;99.90;;;;;;5118697;27;20154;-80
2022/02/02 08:08:52;;;;;;;7.72;2.60;;;6.00;99.90;;;;;;5144634;27;20095;-79
2022/02/02 08:11:27;;;;;;;14.35;3.42;;;6.00;99.90;;;;;;5129247;27;20057;-80
2022/02/02 08:14:00;;;;;;;4.70;2.70;;;6.20;99.90;;;;;;5058885;28;20150;-80
2022/02/02 08:18:15;;;;;;;4.47;1.93;;;6.10;99.90;;;;;;4969331;27;4470880;-84
2022/02/02 08:20:41;;;;;;;8.35;2.40;;;6.20;99.90;;;;;;5108149;27;20051;-81
2022/02/02 08:23:07;;;;;;;3.47;1.40;;;6.00;99.90;;;;;;5120364;27;20055;-81
2022/02/02 08:25:33;;;;;;;12.07;2.47;;;6.10;99.90;;;;;;5120325;27;20031;-82
2022/02/02 08:28:02;;;;;;;9.25;3.95;;;6.20;99.90;;;;;;5122980;27;20047;-84
2022/02/02 08:30:29;;;;;;;2.55;2.00;;;6.80;99.90;;;;;;5102983;28;20042;-81
2022/02/02 08:33:00;;;;;;;4.63;2.03;;;6.00;99.90;;;;;;5117464;27;20116;-82
2022/02/02 08:35:34;;;;;;;9.57;1.67;;;6.50;99.90;;;;;;5119236;28;20100;-81
2022/02/02 08:38:12;;;;;;;4.65;1.45;;;6.30;99.90;;;;;;5110563;27;20487;-79
2022/02/02 08:40:46;;;;;;;6.28;2.33;;;6.20;99.90;;;;;;5134561;27;20046;-79
2022/02/02 08:43:17;;;;;;;10.20;1.95;;;6.10;99.90;;;;;;5114495;27;20047;-82
2022/02/02 08:45:46;;;;;;;1.05;1.02;;;7.00;99.90;;;;;;5104423;27;20080;-81
2022/02/02 08:48:18;;;;;;;14.70;1.85;;;6.80;99.90;;;;;;5142791;27;20039;-84
2022/02/02 08:50:49;;;;;;;3.92;2.28;;;6.20;99.90;;;;;;5115036;27;20380;-81
2022/02/02 08:58:43;;;;;;;6.03;2.28;;;6.40;99.90;;;;;;5124436;27;20458;-83
2022/02/02 09:01:15;;;;;;;8.43;2.40;;;7.40;99.90;;;;;;5104151;27;20074;-81
2022/02/02 09:06:26;;;;;;;22.17;11.50;;;6.60;99.90;;;;;;5116549;27;20051;-81
2022/02/02 09:09:08;;;;;;;12.82;4.63;;;4.70;99.90;;;;;;5094682;27;20078;-82
2022/02/02 09:20:12;;;;;;;5.50;2.47;;;8.50;99.90;;;;;;5128891;27;20044;-81
2022/02/02 09:25:53;;;;;;;8.88;2.33;;;7.30;99.90;;;;;;5129034;28;20046;-83
2022/02/02 09:34:04;;;;;;;4.07;2.03;;;7.00;99.90;;;;;;5142462;27;20031;-81
2022/02/02 09:36:34;;;;;;;14.43;2.33;;;7.10;99.90;;;;;;5110331;28;20122;-82
2022/02/02 09:39:08;;;;;;;5.55;2.55;;;7.00;99.90;;;;;;5123042;27;20345;-82
2022/02/02 09:41:41;;;;;;;5.75;2.88;;;6.10;99.90;;;;;;5122112;27;20040;-83
2022/02/02 09:44:09;;;;;;;12.32;2.40;;;7.20;99.90;;;;;;5118174;27;20092;-80
2022/02/02 09:46:49;;;;;;;5.03;1.63;;;7.10;99.90;;;;;;5118980;27;20123;-80
2022/02/02 09:51:56;;;;;;;4.13;2.50;;;7.40;99.90;;;;;;5113342;27;20112;-83
2022/02/02 09:54:29;;;;;;;6.55;2.25;;;7.80;99.90;;;;;;5128075;27;20138;-83
2022/02/02 10:00:18;;;;;;;12.20;2.25;;;7.30;99.90;;;;;;5124642;27;20050;-82
2022/02/02 10:06:07;;;;;;;4.95;1.77;;;7.10;99.90;;;;;;5120529;27;20047;-80
2022/02/02 10:09:12;;;;;;;8.23;2.65;;;6.80;99.90;;;;;;5116691;27;20043;-82
2022/02/02 10:14:34;;;;;;;4.80;1.88;;;7.00;99.90;;;;;;5107045;27;20130;-83
2022/02/02 10:17:09;;;;;;;9.52;2.47;;;7.20;99.90;;;;;;5109241;27;20078;-81
2022/02/02 10:19:45;;;;;;;3.80;1.35;;;7.20;99.90;;;;;;5129620;27;20403;-80
2022/02/02 10:22:28;;;;;;;7.28;2.97;;;6.30;99.90;;;;;;5078119;27;20126;-81
2022/02/02 10:25:07;;;;;;;9.05;3.17;;;7.30;99.90;;;;;;5118545;27;20104;-82
2022/02/02 10:27:36;;;;;;;9.88;2.42;;;7.60;99.90;;;;;;5095015;28;20753;-82
2022/02/02 10:30:20;;;;;;;7.07;2.78;;;7.20;99.90;;;;;;5098393;27;20427;-81
2022/02/02 10:32:51;;;;;;;10.15;2.08;;;7.80;99.90;;;;;;5131101;27;20054;-83
2022/02/02 10:35:36;;;;;;;7.53;1.80;;;7.70;99.90;;;;;;5113416;27;20874;-83
2022/02/02 10:38:38;;;;;;;;;;;;;;;;;;;;;
2022/02/02 10:43:57;;;;;;;4.75;1.55;;;7.60;99.90;;;;;;5105666;28;20064;-83
2022/02/02 10:46:51;;;;;;;2.55;1.58;;;7.00;99.90;;;;;;5099282;28;20050;-84
2022/02/02 10:49:27;;;;;;;5.53;1.60;;;7.80;99.90;;;;;;5095041;28;20544;-84
2022/02/02 10:55:13;;;;;;;3.10;2.25;;;8.40;99.90;;;;;;5098381;28;20154;-83
2022/02/02 10:58:01;;;;;;;12.77;2.38;;;7.80;99.90;;;;;;5094825;28;20039;-83
2022/02/02 11:00:34;;;;;;;4.03;1.52;;;8.20;99.90;;;;;;5051973;27;89629;-81
2022/02/02 11:08:51;;;;;;;5.45;1.90;;;8.40;99.90;;;;;;5127974;27;20608;-80
2022/02/02 11:11:20;;;;;;;9.95;1.73;;;8.00;99.90;;;;;;5097859;28;20042;-82
2022/02/02 11:13:49;;;;;;;5.80;2.05;;;8.10;99.90;;;;;;4673154;28;9350659;-82
2022/02/02 11:16:23;;;;;;;16.58;2.35;;;7.90;99.90;;;;;;5070163;27;20442;-81
2022/02/02 11:18:53;;;;;;;3.70;1.33;;;6.60;99.90;;;;;;5125039;27;20065;-83
2022/02/02 11:21:35;;;;;;;8.93;2.08;;;8.50;99.90;;;;;;5118582;27;20498;-81
2022/02/02 11:24:19;;;;;;;9.15;1.98;;;7.70;99.90;;;;;;5143034;27;20056;-82
2022/02/02 11:26:48;;;;;;;12.05;2.35;;;7.70;99.90;;;;;;5125882;27;20023;-81
2022/02/02 11:29:40;;;;;;;8.93;2.65;;;8.10;99.90;;;;;;5116310;27;20623;-79
2022/02/02 11:32:14;;;;;;;7.18;2.67;;;7.50;99.90;;;;;;5093455;27;20040;-81
2022/02/02 11:34:40;;;;;;;8.77;2.35;;;7.70;99.90;;;;;;5100257;28;20054;-80
2022/02/02 11:37:12;;;;;;;6.85;2.10;;;7.60;99.90;;;;;;5114326;27;20401;-83
2022/02/02 11:39:57;;;;;;;3.67;2.17;;;7.90;99.90;;;;;;5105163;28;20749;-80
2022/02/02 11:45:51;;;;;;;3.10;1.75;;;7.70;99.90;;;;;;5113291;27;20832;-80
2022/02/02 11:48:44;;;;;;;21.50;1.58;;;8.10;99.90;;;;;;5119494;27;20054;-82
2022/02/02 11:51:10;;;;;;;0.93;0.85;;;8.00;99.90;;;;;;5109357;27;20047;-82
2022/02/02 11:53:51;;;;;;;7.97;1.48;;;8.00;99.90;;;;;;5124877;27;20579;-81
2022/02/02 11:56:18;;;;;;;3.35;1.70;;;8.00;99.90;;;;;;5110909;27;20044;-80
2022/02/02 11:58:45;;;;;;;1.55;1.23;;;8.00;99.90;;;;;;5113334;27;20035;-80
2022/02/02 12:01:18;;;;;;;2.15;1.40;;;7.90;99.90;;;;;;5117575;27;20400;-83
2022/02/02 12:06:42;;;;;;;4.55;1.10;;;7.90;99.90;;;;;;5110319;27;20120;-80
2022/02/02 12:47:21;;;;;;;6.57;2.42;;;8.60;99.90;;;;;;5134423;28;20365;-80
2022/02/02 12:50:15;;;;;;;7.32;1.65;;;6.90;99.90;;;;;;5123720;28;20047;-81
2022/02/02 12:58:28;;;;;;;6.95;2.28;;;9.30;99.90;;;;;;5119259;28;20464;-81
2022/02/02 13:01:08;;;;;;;2.50;1.88;;;8.50;99.90;;;;;;5092279;28;20547;-83
2022/02/02 13:03:36;;;;;;;3.10;1.65;;;9.10;99.90;;;;;;5121679;27;20043;-80
2022/02/02 13:06:02;;;;;;;11.13;2.40;;;8.50;99.90;;;;;;5126119;27;20074;-81
2022/02/02 13:08:27;;;;;;;;;;;9.30;99.90;;;;;;5107702;28;20032;-81
2022/02/02 13:10:53;;;;;;;5.13;2.00;;;8.50;99.90;;;;;;5120305;27;19915;-79
2022/02/02 13:13:28;;;;;;;2.90;1.17;;;8.40;99.90;;;;;;5098316;28;20055;-81
2022/02/02 13:16:07;;;;;;;6.45;1.35;;;9.60;99.90;;;;;;5114528;27;20035;-81
2022/02/02 13:29:29;;;;;;;2.17;1.60;;;8.20;99.90;;;;;;5118272;27;20051;-80
2022/02/02 13:32:09;;;;;;;3.13;1.47;;;8.30;99.90;;;;;;5103217;28;20047;-80
2022/02/02 13:47:53;;;;;;;4.05;2.05;;;8.30;99.90;;;;;;5113305;27;20472;-79
2022/02/02 14:01:26;;;;;;;5.03;1.58;;;7.60;99.90;;;;;;5118597;27;20055;-79
2022/02/02 14:04:13;;;;;;;5.10;1.77;;;8.50;99.90;;;;;;5099276;28;20043;-82
2022/02/02 14:33:30;;;;;;;8.48;1.75;;;8.70;99.90;;;;;;5117313;27;20399;-81
2022/02/02 14:36:01;;;;;;;1.92;1.60;;;8.70;99.90;;;;;;5121229;27;20043;-81
2022/02/02 14:38:34;;;;;;;6.53;1.77;;;8.70;99.90;;;;;;5101888;27;20089;-81
2022/02/02 14:43:42;;;;;;;8.85;1.80;;;9.00;99.90;;;;;;5139794;27;20043;-81
2022/02/02 14:46:11;;;;;;;6.55;2.05;;;9.30;99.90;;;;;;5134220;27;20122;-81
2022/02/02 14:48:44;;;;;;;3.30;1.67;;;9.50;99.90;;;;;;5120733;27;20488;-82
2022/02/02 14:51:31;;;;;;;3.22;1.45;;;9.60;99.90;;;;;;5096396;28;20130;-82
2022/02/02 15:08:56;;;;;;;9.88;1.35;;;9.40;99.90;;;;;;5110123;28;20399;-81
2022/02/02 15:29:11;;;;;;;13.82;2.55;;;8.10;99.90;;;;;;5114445;27;20126;-80
2022/02/02 15:31:37;;;;;;;4.47;1.67;;;8.10;99.90;;;;;;5118821;27;20043;-82
2022/02/02 15:34:08;;;;;;;6.75;1.33;;;8.40;99.90;;;;;;5116892;27;20042;-82
2022/02/02 15:39:14;;;;;;;4.22;1.50;;;7.70;99.90;;;;;;5122503;27;20043;-81
2022/02/02 15:42:16;;;;;;;1.35;1.10;;;7.70;99.90;;;;;;5111693;27;20393;-80
2022/02/02 15:58:16;;;;;;;2.92;1.33;;;7.10;99.90;;;;;;5104816;27;20077;-85
2022/02/02 16:01:58;;;;;;;3.40;1.13;;;7.10;99.90;;;;;;5092592;27;20046;-84
2022/02/02 16:03:42;;;;;;;2.78;1.40;;;6.90;99.90;;;;;;5104007;27;20112;-84
2022/02/02 16:06:44;;;;;;;0.90;0.90;;;7.10;99.90;;;;;;5123403;27;20114;-87
2022/02/02 16:12:21;;;;;;;4.30;1.40;;;7.80;99.90;;;;;;5088407;28;20453;-85
2022/02/02 16:14:53;;;;;;;5.60;1.55;;;7.50;99.90;;;;;;5138589;27;20054;-85
2022/02/02 16:34:43;;;;;;;1.70;1.08;;;6.00;99.90;;;;;;5117276;28;20058;-84
2022/02/02 16:36:30;;;;;;;1.77;1.33;;;6.30;99.90;;;;;;5105552;28;20043;-79
2022/02/02 16:39:12;;;;;;;5.95;1.55;;;5.90;99.90;;;;;;5128259;27;20108;-81
2022/02/02 16:44:23;;;;;;;8.95;1.50;;;5.60;99.90;;;;;;5117460;27;20075;-81
2022/02/02 16:46:49;;;;;;;6.30;1.50;;;5.70;99.90;;;;;;5124632;27;20085;-83
2022/02/02 16:49:15;;;;;;;1.65;1.00;;;5.60;99.90;;;;;;5115861;27;20093;-80
2022/02/02 16:51:42;;;;;;;1.20;1.13;;;5.60;99.90;;;;;;5106636;28;20388;-84
2022/02/02 16:54:15;;;;;;;5.63;1.73;;;5.60;99.90;;;;;;5123203;27;20055;-78
2022/02/02 17:32:27;;;;;;;3.50;1.60;;;5.60;99.90;;;;;;5123955;27;20043;-76
2022/02/02 17:37:42;;;;;;;6.95;1.58;;;5.50;99.90;;;;;;5113964;27;20439;-78
2022/02/02 17:41:09;;;;;;;6.57;1.42;;;5.70;99.90;;;;;;5091580;27;20032;-78
2022/02/02 17:45:43;;;;;;;6.13;2.30;;;5.50;99.90;;;;;;5112548;27;20051;-78
2022/02/02 17:57:34;;;;;;;3.45;2.20;;;5.30;99.90;;;;;;5112416;27;20085;-77
2022/02/02 18:21:08;;;;;;;3.92;1.83;;;4.80;99.90;;;;;;5091676;28;20051;-78
2022/02/02 18:23:45;;;;;;;9.60;3.25;;;5.10;99.90;;;;;;5098610;28;20039;-78
2022/02/02 18:31:21;;;;;;;9.23;1.92;;;4.90;99.90;;;;;;5095029;28;20119;-78
2022/02/02 18:34:03;;;;;;;2.25;1.50;;;5.00;99.90;;;;;;5107002;28;20078;-78
2022/02/02 18:36:49;;;;;;;5.43;2.60;;;;;;;;;;5101498;28;20044;-78
2022/02/02 18:57:39;;;;;;;5.15;3.00;;;4.30;99.90;;;;;;5117788;28;20047;-78
2022/02/02 19:00:17;;;;;;;8.32;2.47;;;4.30;99.90;;;;;;5085933;28;20052;-79
2022/02/02 19:06:03;;;;;;;2.92;1.92;;;4.90;99.90;;;;;;5079787;28;20051;-80
2022/02/02 19:53:26;;;;;;;1.55;1.30;;;5.20;99.90;;;;;;5107147;27;20719;-85
2022/02/02 20:06:39;;;;;;;9.73;2.45;;;5.50;99.90;;;;;;5111266;27;20119;-81
2022/02/02 20:11:43;;;;;;;6.13;1.90;;;5.40;99.90;;;;;;5112229;27;20063;-80
2022/02/02 20:14:13;;;;;;;2.45;1.45;;;5.40;99.90;;;;;;5090995;28;20467;-81
2022/02/02 20:16:39;;;;;;;3.53;1.67;;;5.40;99.90;;;;;;5064826;28;20066;-81
2022/02/02 20:19:09;;;;;;;2.00;1.63;;;5.40;99.90;;;;;;5089065;28;24476;-80
2022/02/02 20:21:44;;;;;;;3.53;1.55;;;5.10;99.90;;;;;;5115085;28;20189;-81
2022/02/02 20:24:10;;;;;;;1.83;1.50;;;5.80;99.90;;;;;;5107051;28;20043;-81
2022/02/02 20:26:37;;;;;;;9.85;2.28;;;6.70;99.90;;;;;;5107638;28;20047;-84
2022/02/02 20:29:03;;;;;;;4.32;1.70;;;5.40;99.90;;;;;;5118689;28;20558;-82
2022/02/02 20:31:33;;;;;;;9.13;2.03;;;5.50;99.90;;;;;;5096875;28;20381;-82
2022/02/02 20:34:00;;;;;;;4.25;2.25;;;5.50;99.90;;;;;;5102155;28;20066;-84
2022/02/02 20:36:26;;;;;;;;;;;5.70;99.90;;;;;;5079139;28;20034;-82
2022/02/02 20:38:54;;;;;;;3.00;1.83;;;6.20;99.90;;;;;;5130921;27;19916;-85
2022/02/02 20:41:20;;;;;;;13.10;2.58;;;5.60;99.90;;;;;;5129290;27;20058;-83
2022/02/02 20:44:01;;;;;;;2.47;1.67;;;6.10;99.90;;;;;;5108994;28;20108;-82
2022/02/02 21:10:29;;;;;;;16.52;2.75;;;6.10;99.90;;;;;;5121140;28;20049;-82
2022/02/02 21:15:40;;;;;;;7.68;2.75;;;5.80;99.90;;;;;;5112768;28;20468;-81
2022/02/02 21:18:10;;;;;;;3.10;1.77;;;6.10;99.90;;;;;;5107982;28;20050;-85
2022/02/02 21:26:14;;;;;;;6.07;2.60;;;6.10;99.90;;;;;;5117117;27;20195;-84
2022/02/02 21:28:42;;;;;;;5.05;2.20;;;5.90;99.90;;;;;;5112866;27;20043;-83
2022/02/02 21:31:10;;;;;;;15.07;3.50;;;4.70;99.90;;;;;;5112366;27;20043;-81
2022/02/02 21:33:38;;;;;;;4.95;2.97;;;6.50;99.90;;;;;;5101761;27;20503;-83
2022/02/02 21:36:08;;;;;;;8.45;3.90;;;6.00;99.90;;;;;;5105180;28;20043;-82
2022/02/02 21:39:10;;;;;;;17.05;3.95;;;6.60;99.90;;;;;;5099081;28;20465;-82
2022/02/02 21:41:33;;;;;;;6.57;2.83;;;6.20;99.90;;;;;;5121111;27;20083;-84
2022/02/02 21:44:00;;;;;;;11.63;3.53;;;6.00;99.90;;;;;;5100010;27;20039;-82
2022/02/02 21:46:26;;;;;;;10.52;3.90;;;6.10;99.90;;;;;;5100431;27;20122;-82
2022/02/02 21:48:55;;;;;;;;;;;6.90;99.90;;;;;;5118992;27;20046;-82
2022/02/02 21:51:30;;;;;;;11.52;5.57;;;5.90;99.90;;;;;;5093189;28;20270;-81
2022/02/02 21:53:56;;;;;;;14.57;3.63;;;6.00;99.90;;;;;;5106871;28;20105;-82
2022/02/02 21:56:32;;;;;;;8.85;5.13;;;6.00;99.90;;;;;;5118029;27;20042;-82
2022/02/02 21:58:58;;;;;;;10.10;4.35;;;6.00;99.90;;;;;;5108891;27;20050;-82
2022/02/02 22:01:27;;;;;;;5.80;4.22;;;6.00;99.90;;;;;;5105417;27;20454;-81
2022/02/02 22:03:53;;;;;;;7.93;4.38;;;6.10;99.90;;;;;;5091128;28;20039;-81
2022/02/02 22:06:19;;;;;;;21.27;5.05;;;7.40;99.90;;;;;;5096302;27;20036;-81
2022/02/02 22:08:45;;;;;;;11.10;4.28;;;6.10;99.90;;;;;;5122961;27;20050;-84
2022/02/02 22:11:11;;;;;;;14.88;4.00;;;6.70;99.90;;;;;;5095941;27;20039;-83
2022/02/02 22:13:40;;;;;;;19.10;5.65;;;6.10;99.90;;;;;;5132781;27;20043;-83
2022/02/02 22:16:12;;;;;;;10.20;4.53;;;6.10;99.90;;;;;;5120108;27;20058;-82
2022/02/02 22:18:40;;;;;;;7.28;4.32;;;6.20;99.90;;;;;;5116836;27;20059;-82
2022/02/02 22:21:07;;;;;;;8.38;4.47;;;6.20;99.90;;;;;;5115263;27;20043;-83
2022/02/02 22:23:35;;;;;;;10.88;4.50;;;6.20;99.90;;;;;;5106473;27;20488;-83
2022/02/02 22:26:01;;;;;;;8.00;4.03;;;6.40;99.90;;;;;;5115062;27;20041;-82
2022/02/02 22:28:27;;;;;;;;;;;6.50;99.90;;;;;;5120415;27;20042;-79
2022/02/02 22:30:53;;;;;;;11.75;5.38;;;6.30;99.90;;;;;;5116704;27;19919;-83
2022/02/02 22:33:19;;;;;;;13.82;4.72;;;6.50;99.90;;;;;;5107469;27;20043;-80
2022/02/02 22:35:45;;;;;;;10.82;4.97;;;6.30;99.90;;;;;;5117906;27;20039;-84
2022/02/02 22:38:11;;;;;;;12.90;5.15;;;6.40;99.90;;;;;;5116762;27;20404;-82
2022/02/02 22:40:36;;;;;;;8.00;3.88;;;6.50;99.90;;;;;;5116142;27;20469;-82
2022/02/02 22:43:03;;;;;;;11.20;6.30;;;6.60;99.90;;;;;;5100236;27;20035;-82
2022/02/02 22:45:28;;;;;;;;;;;6.30;99.90;;;;;;5133380;27;20042;-80
2022/02/02 22:47:57;;;;;;;10.15;4.63;;;6.40;99.90;;;;;;5122406;27;19915;-79
2022/02/02 22:50:23;;;;;;;7.88;4.65;;;6.40;99.90;;;;;;5120763;27;20126;-82
2022/02/02 22:52:52;;;;;;;18.08;5.10;;;6.40;99.90;;;;;;5102212;27;20095;-80
2022/02/02 22:55:19;;;;;;;14.75;4.93;;;6.40;99.90;;;;;;5107136;27;20051;-81
2022/02/02 22:57:45;;;;;;;7.82;4.35;;;6.50;99.90;;;;;;5115901;27;20050;-79
2022/02/02 23:00:15;;;;;;;7.22;3.85;;;6.50;99.90;;;;;;5104381;27;20050;-81
2022/02/02 23:05:18;;;;;;;11.40;4.97;;;6.60;99.90;;;;;;5112625;27;20044;-80
2022/02/02 23:07:44;;;;;;;12.05;5.40;;;6.50;99.90;;;;;;5118161;27;20296;-78
2022/02/02 23:10:11;;;;;;;9.45;5.10;;;6.60;99.90;;;;;;5106316;28;20048;-79
2022/02/02 23:12:36;;;;;;;;;;;6.60;99.90;;;;;;5121079;27;20552;-81
2022/02/02 23:15:07;;;;;;;11.63;5.03;;;6.60;99.90;;;;;;5116799;27;19993;-80
2022/02/02 23:17:34;;;;;;;10.35;5.72;;;6.60;99.90;;;;;;5119150;27;20051;-79
2022/02/02 23:20:00;;;;;;;12.68;4.55;;;6.60;99.90;;;;;;5124435;27;20055;-78
2022/02/02 23:22:29;;;;;;;;;;;6.70;99.90;;;;;;5124290;27;20114;-82
2022/02/02 23:24:59;;;;;;;8.70;5.38;;;6.70;99.90;;;;;;5103064;27;20276;-81
2022/02/02 23:27:25;;;;;;;11.07;4.50;;;6.80;99.90;;;;;;5122804;27;20054;-79
2022/02/02 23:29:55;;;;;;;10.25;4.25;;;6.80;99.90;;;;;;5112502;27;20055;-79
2022/02/02 23:32:23;;;;;;;10.30;5.32;;;7.00;99.90;;;;;;5104885;27;20047;-81
2022/02/02 23:34:49;;;;;;;9.43;4.72;;;6.80;99.90;;;;;;5120575;27;20605;-80
2022/02/02 23:37:16;;;;;;;11.55;4.30;;;7.10;99.90;;;;;;5115155;27;20134;-80
2022/02/02 23:39:42;;;;;;;7.60;4.35;;;7.40;99.90;;;;;;5112044;27;20210;-82
2022/02/02 23:42:24;;;;;;;;;;;7.20;99.90;;;;;;5125661;27;20035;-82
2022/02/02 23:44:51;;;;;;;11.15;3.75;;;;;;;;;;5116154;27;20316;-82
2022/02/02 23:47:19;;;;;;;16.20;4.95;;;7.00;99.90;;;;;;5115962;27;20051;-81
2022/02/02 23:49:55;;;;;;;8.98;4.38;;;7.20;99.90;;;;;;5078261;28;20046;-79
2022/02/02 23:52:33;;;;;;;5.00;3.75;;;7.10;99.90;;;;;;5107770;27;20383;-83
2022/02/02 23:55:03;;;;;;;9.10;4.22;;;7.10;99.90;;;;;;5118321;27;20070;-82
